createdAt,value
2022-12-07T00:01:46.505Z,100573.38
2022-12-07T00:04:18.280Z,100571.88
2022-12-07T00:06:51.764Z,100569.56
2022-12-07T00:09:19.942Z,100566.59
2022-12-07T00:11:52.083Z,100561.50
2022-12-07T00:14:21.205Z,100564.97
2022-12-07T00:16:52.562Z,100557.25
2022-12-07T00:19:21.193Z,100561.34
2022-12-07T00:21:49.491Z,100550.94
2022-12-07T00:24:17.494Z,100555.38
2022-12-07T00:26:46.651Z,100544.00
2022-12-07T00:29:19.552Z,100554.59
2022-12-07T00:31:48.178Z,100546.19
2022-12-07T00:34:20.064Z,100552.03
2022-12-07T00:36:50.445Z,100555.00
2022-12-07T00:39:18.608Z,100556.03
2022-12-07T00:41:47.019Z,100573.59
2022-12-07T00:44:15.112Z,100565.09
2022-12-07T00:46:43.466Z,100563.59
2022-12-07T00:49:11.402Z,100560.81
2022-12-07T00:51:39.813Z,100561.66
2022-12-07T00:54:07.904Z,100556.47
2022-12-07T00:56:36.405Z,100552.31
2022-12-07T00:59:06.255Z,100552.84
2022-12-07T01:01:38.616Z,100556.81
2022-12-07T01:04:07.375Z,100559.94
2022-12-07T01:06:36.304Z,100551.44
2022-12-07T01:09:05.908Z,100560.19
2022-12-07T01:11:35.406Z,100555.03
2022-12-07T01:14:04.601Z,100556.72
2022-12-07T01:16:34.439Z,100554.56
2022-12-07T01:19:05.909Z,100555.16
2022-12-07T01:21:37.172Z,100556.97
2022-12-07T01:24:08.078Z,100564.81
2022-12-07T01:26:37.399Z,100567.47
2022-12-07T01:29:05.543Z,100569.75
2022-12-07T01:31:35.253Z,100555.56
2022-12-07T01:34:03.626Z,100555.78
2022-12-07T01:36:34.422Z,100555.44
2022-12-07T01:39:05.716Z,100563.09
2022-12-07T01:41:36.778Z,100564.88
2022-12-07T01:44:23.254Z,100559.06
2022-12-07T01:46:57.179Z,100558.50
2022-12-07T01:49:40.455Z,100549.00
2022-12-07T01:52:29.409Z,100551.59
2022-12-07T01:55:08.904Z,100550.56
2022-12-07T01:57:41.224Z,100551.81
2022-12-07T02:00:10.990Z,100555.50
2022-12-07T02:03:01.704Z,100541.00
2022-12-07T02:05:30.404Z,100544.41
2022-12-07T02:08:00.459Z,100555.06
2022-12-07T02:10:31.905Z,100543.97
2022-12-07T02:13:22.135Z,100536.56
2022-12-07T02:16:32.477Z,100538.69
2022-12-07T02:19:46.430Z,100532.22
2022-12-07T02:22:36.262Z,100518.72
2022-12-07T02:25:15.299Z,100523.59
2022-12-07T02:28:02.966Z,100523.66
2022-12-07T02:30:36.983Z,100530.56
2022-12-07T02:33:07.537Z,100531.38
2022-12-07T02:35:49.583Z,100524.50
2022-12-07T02:38:27.759Z,100528.94
2022-12-07T02:41:03.599Z,100530.94
2022-12-07T02:43:49.257Z,100525.31
2022-12-07T02:46:49.788Z,100521.53
2022-12-07T02:49:18.339Z,100522.22
2022-12-07T02:51:48.109Z,100529.31
2022-12-07T02:54:20.848Z,100529.25
2022-12-07T02:57:13.522Z,100519.44
2022-12-07T03:00:12.879Z,100522.66
2022-12-07T03:03:02.157Z,100523.50
2022-12-07T03:05:33.291Z,100510.75
2022-12-07T03:08:14.929Z,100517.53
2022-12-07T03:10:59.161Z,100508.97
2022-12-07T03:13:47.485Z,100521.19
2022-12-07T03:16:24.205Z,100514.41
2022-12-07T03:19:00.379Z,100518.16
2022-12-07T03:21:36.525Z,100522.94
2022-12-07T03:24:12.375Z,100516.34
2022-12-07T03:26:46.939Z,100503.50
2022-12-07T03:29:27.880Z,100496.91
2022-12-07T03:32:02.413Z,100494.78
2022-12-07T03:35:04.825Z,100499.06
2022-12-07T03:37:38.373Z,100492.09
2022-12-07T03:40:33.174Z,100490.81
2022-12-07T03:43:03.901Z,100494.53
2022-12-07T03:45:41.467Z,100489.53
2022-12-07T03:48:47.725Z,100488.19
2022-12-07T03:51:27.914Z,100483.72
2022-12-07T03:54:28.114Z,100476.69
2022-12-07T03:56:59.908Z,100477.47
2022-12-07T03:59:29.516Z,100475.44
2022-12-07T04:02:04.160Z,100473.94
2022-12-07T04:04:33.204Z,100478.25
2022-12-07T04:07:01.614Z,100473.69
2022-12-07T04:09:29.583Z,100476.13
2022-12-07T04:11:58.974Z,100473.06
2022-12-07T04:14:26.931Z,100483.31
2022-12-07T04:16:58.918Z,100473.81
2022-12-07T04:19:32.956Z,100469.63
2022-12-07T04:22:04.385Z,100473.81
2022-12-07T04:24:33.275Z,100475.25
2022-12-07T04:27:02.839Z,100473.59
2022-12-07T04:29:30.745Z,100477.22
2022-12-07T04:32:00.065Z,100477.81
2022-12-07T04:34:28.299Z,100465.41
2022-12-07T04:36:57.716Z,100466.38
2022-12-07T04:39:30.756Z,100469.81
2022-12-07T04:42:00.605Z,100466.94
2022-12-07T04:44:30.716Z,100471.69
2022-12-07T04:47:00.219Z,100468.53
2022-12-07T04:49:28.265Z,100467.66
2022-12-07T04:51:56.486Z,100472.97
2022-12-07T04:54:24.332Z,100467.03
2022-12-07T04:56:52.575Z,100469.50
2022-12-07T04:59:20.725Z,100478.09
2022-12-07T05:01:49.232Z,100475.09
2022-12-07T05:04:18.937Z,100468.41
2022-12-07T05:06:47.201Z,100475.88
2022-12-07T05:09:15.105Z,100478.72
2022-12-07T05:11:44.837Z,100484.16
2022-12-07T05:14:16.336Z,100478.69
2022-12-07T05:16:46.268Z,100471.84
2022-12-07T05:19:14.546Z,100469.31
2022-12-07T05:21:42.727Z,100467.31
2022-12-07T05:24:14.334Z,100460.41
2022-12-07T05:26:43.725Z,100455.81
2022-12-07T05:29:14.198Z,100457.03
2022-12-07T05:31:43.328Z,100463.00
2022-12-07T05:34:12.244Z,100459.13
2022-12-07T05:36:40.471Z,100463.22
2022-12-07T05:39:10.287Z,100458.94
2022-12-07T05:41:56.927Z,100457.03
2022-12-07T05:44:24.817Z,100456.53
2022-12-07T05:46:53.008Z,100457.31
2022-12-07T05:49:20.947Z,100459.59
2022-12-07T05:51:49.037Z,100465.50
2022-12-07T05:54:16.844Z,100473.44
2022-12-07T05:56:44.955Z,100465.75
2022-12-07T05:59:25.052Z,100470.72
2022-12-07T06:01:59.486Z,100472.81
2022-12-07T06:04:31.349Z,100473.50
2022-12-07T06:06:59.670Z,100468.06
2022-12-07T06:09:29.267Z,100466.72
2022-12-07T06:12:16.397Z,100471.78
2022-12-07T06:14:45.431Z,100475.28
2022-12-07T06:17:14.688Z,100477.53
2022-12-07T06:19:43.752Z,100475.19
2022-12-07T06:22:13.169Z,100469.63
2022-12-07T06:24:41.978Z,100460.78
2022-12-07T06:27:11.048Z,100472.72
2022-12-07T06:29:39.389Z,100475.94
2022-12-07T06:32:07.805Z,100474.88
2022-12-07T06:34:36.077Z,100490.22
2022-12-07T06:37:04.978Z,100488.59
2022-12-07T06:39:33.289Z,100489.59
2022-12-07T06:42:01.170Z,100490.88
2022-12-07T06:44:29.367Z,100490.22
2022-12-07T06:47:24.630Z,100498.41
2022-12-07T06:49:46.108Z,100493.28
2022-12-07T06:52:13.958Z,100496.41
2022-12-07T06:54:42.109Z,100498.97
2022-12-07T06:57:10.140Z,100498.00
2022-12-07T06:59:38.362Z,100499.03
2022-12-07T07:02:06.346Z,100494.31
2022-12-07T07:04:34.788Z,100492.59
2022-12-07T07:07:02.632Z,100495.09
2022-12-07T07:09:30.849Z,100494.53
2022-12-07T07:11:58.676Z,100498.59
2022-12-07T07:14:26.978Z,100511.97
2022-12-07T07:16:54.973Z,100508.81
2022-12-07T07:19:23.170Z,100506.16
2022-12-07T07:21:51.646Z,100506.28
2022-12-07T07:24:19.969Z,100515.22
2022-12-07T07:26:47.828Z,100505.88
2022-12-07T07:29:16.198Z,100509.97
2022-12-07T07:31:44.121Z,100508.28
2022-12-07T07:34:12.391Z,100519.78
2022-12-07T07:36:40.365Z,100515.16
2022-12-07T07:39:08.728Z,100510.84
2022-12-07T07:41:37.233Z,100519.47
2022-12-07T07:44:05.468Z,100521.03
2022-12-07T07:46:34.718Z,100514.59
2022-12-07T07:49:02.979Z,100516.38
2022-12-07T07:51:30.889Z,100515.28
2022-12-07T07:53:59.038Z,100526.66
2022-12-07T07:56:26.852Z,100520.97
2022-12-07T07:58:55.009Z,100527.06
2022-12-07T08:01:22.967Z,100527.06
2022-12-07T08:03:51.308Z,100526.44
2022-12-07T08:06:19.200Z,100531.22
2022-12-07T08:08:47.499Z,100532.28
2022-12-07T08:11:15.590Z,100534.72
2022-12-07T08:13:48.288Z,100544.72
2022-12-07T08:16:16.582Z,100528.03
2022-12-07T08:18:45.077Z,100533.66
2022-12-07T08:21:15.482Z,100531.41
2022-12-07T08:23:43.908Z,100538.22
2022-12-07T08:26:15.300Z,100528.09
2022-12-07T08:28:44.879Z,100528.25
2022-12-07T08:31:16.417Z,100531.63
2022-12-07T08:33:47.472Z,100539.16
2022-12-07T08:36:15.390Z,100546.06
2022-12-07T08:39:01.508Z,100546.81
2022-12-07T08:41:33.920Z,100546.34
2022-12-07T08:48:59.877Z,100550.09
2022-12-07T08:51:28.316Z,100555.47
2022-12-07T08:53:59.942Z,100550.69
2022-12-07T08:56:28.915Z,100548.09
2022-12-07T08:58:57.592Z,100553.31
2022-12-07T09:01:25.864Z,100547.72
2022-12-07T09:03:54.008Z,100541.25
2022-12-07T09:06:22.952Z,100543.84
2022-12-07T09:08:55.952Z,100534.84
2022-12-07T09:11:28.422Z,100534.38
2022-12-07T09:13:58.320Z,100541.22
2022-12-07T09:16:26.549Z,100543.78
2022-12-07T09:18:54.450Z,100541.03
2022-12-07T09:21:22.835Z,100548.50
2022-12-07T09:23:50.692Z,100543.66
2022-12-07T09:26:19.000Z,100542.25
2022-12-07T09:28:46.839Z,100547.75
2022-12-07T09:31:24.882Z,100545.91
2022-12-07T09:33:58.451Z,100546.19
2022-12-07T09:36:28.540Z,100543.88
2022-12-07T09:38:57.286Z,100545.38
2022-12-07T09:41:27.961Z,100537.03
2022-12-07T09:44:04.133Z,100543.94
2022-12-07T09:46:38.622Z,100541.75
2022-12-07T09:49:11.503Z,100535.66
2022-12-07T09:51:39.839Z,100527.28
2022-12-07T09:54:09.212Z,100527.78
2022-12-07T09:56:37.501Z,100527.16
2022-12-07T09:59:05.391Z,100525.84
2022-12-07T10:01:35.560Z,100521.66
2022-12-07T10:04:14.333Z,100512.41
2022-12-07T10:06:43.421Z,100515.94
2022-12-07T10:09:16.963Z,100514.28
2022-12-07T10:12:03.788Z,100513.00
2022-12-07T10:15:05.415Z,100504.75
2022-12-07T10:17:36.681Z,100515.22
2022-12-07T10:20:19.645Z,100506.94
2022-12-07T10:23:06.213Z,100502.53
2022-12-07T10:25:39.640Z,100510.16
2022-12-07T10:28:19.300Z,100507.38
2022-12-07T10:31:04.502Z,100506.31
2022-12-07T10:33:50.602Z,100495.31
2022-12-07T10:36:28.872Z,100498.28
2022-12-07T10:39:11.968Z,100494.22
2022-12-07T10:42:04.190Z,100494.38
2022-12-07T10:44:34.735Z,100489.34
2022-12-07T10:47:11.376Z,100479.78
2022-12-07T10:49:39.618Z,100487.63
2022-12-07T10:52:51.920Z,100490.19
2022-12-07T10:56:08.464Z,100483.34
2022-12-07T10:59:03.264Z,100479.47
2022-12-07T11:01:58.620Z,100488.53
2022-12-07T11:04:51.245Z,100487.34
2022-12-07T11:07:41.368Z,100491.69
2022-12-07T11:10:35.061Z,100494.13
2022-12-07T11:13:17.043Z,100481.66
2022-12-07T11:15:56.736Z,100471.38
2022-12-07T11:19:04.942Z,100472.88
2022-12-07T11:21:58.932Z,100469.94
2022-12-07T11:24:32.991Z,100465.75
2022-12-07T11:27:30.074Z,100457.78
2022-12-07T11:30:02.554Z,100456.50
2022-12-07T11:32:49.273Z,100462.34
2022-12-07T11:35:32.041Z,100454.63
2022-12-07T11:38:09.842Z,100452.94
2022-12-07T11:40:40.912Z,100448.69
2022-12-07T11:43:19.876Z,100447.69
2022-12-07T11:46:07.422Z,100447.81
2022-12-07T11:48:41.946Z,100445.94
2022-12-07T11:51:14.033Z,100446.75
2022-12-07T11:54:00.701Z,100439.63
2022-12-07T11:56:30.712Z,100435.78
2022-12-07T11:59:06.033Z,100435.97
2022-12-07T12:01:37.330Z,100431.91
2022-12-07T12:04:11.298Z,100427.56
2022-12-07T12:06:41.351Z,100429.59
2022-12-07T12:15:22.102Z,100413.38
2022-12-07T12:18:18.102Z,100411.97
2022-12-07T12:20:48.663Z,100411.00
2022-12-07T12:23:39.046Z,100400.16
2022-12-07T12:26:10.152Z,100405.91
2022-12-07T12:28:50.973Z,100406.91
2022-12-07T12:31:22.130Z,100401.53
2022-12-07T12:34:04.542Z,100394.75
2022-12-07T12:36:34.333Z,100399.47
2022-12-07T12:39:12.363Z,100390.03
2022-12-07T12:42:00.201Z,100395.06
2022-12-07T12:44:33.225Z,100394.09
2022-12-07T12:47:25.258Z,100395.91
2022-12-07T12:50:25.863Z,100388.88
2022-12-07T12:53:25.183Z,100391.31
2022-12-07T12:56:11.892Z,100392.91
2022-12-07T12:58:43.063Z,100383.53
2022-12-07T13:01:33.213Z,100383.19
2022-12-07T13:04:01.712Z,100392.88
2022-12-07T13:06:29.888Z,100381.19
2022-12-07T13:09:01.464Z,100377.16
2022-12-07T13:11:45.352Z,100378.56
2022-12-07T13:14:51.004Z,100369.75
2022-12-07T13:17:40.713Z,100368.41
2022-12-07T13:20:15.749Z,100368.91
2022-12-07T13:22:50.552Z,100369.94
2022-12-07T13:25:21.171Z,100361.19
2022-12-07T13:28:18.827Z,100365.91
2022-12-07T13:31:02.431Z,100362.13
2022-12-07T13:33:31.514Z,100362.81
2022-12-07T13:36:01.802Z,100365.34
2022-12-07T13:38:33.691Z,100366.66
2022-12-07T13:41:17.934Z,100363.97
2022-12-07T13:44:01.146Z,100364.22
2022-12-07T13:46:46.987Z,100361.94
2022-12-07T13:49:27.741Z,100357.22
2022-12-07T13:52:13.812Z,100352.66
2022-12-07T13:54:51.354Z,100350.50
2022-12-07T13:57:20.488Z,100355.31
2022-12-07T13:59:49.326Z,100347.78
2022-12-07T14:02:35.310Z,100351.47
2022-12-07T14:05:24.313Z,100346.09
2022-12-07T14:07:58.078Z,100353.94
2022-12-07T14:10:28.326Z,100354.41
2022-12-07T14:12:58.686Z,100355.72
2022-12-07T14:15:36.574Z,100357.69
2022-12-07T14:18:05.983Z,100352.97
2022-12-07T14:20:38.581Z,100352.22
2022-12-07T14:23:24.904Z,100354.59
2022-12-07T14:25:55.344Z,100358.09
2022-12-07T14:28:32.374Z,100350.84
2022-12-07T14:31:02.203Z,100351.75
2022-12-07T14:33:30.383Z,100360.41
2022-12-07T14:35:59.446Z,100357.66
2022-12-07T14:38:27.635Z,100359.63
2022-12-07T14:41:17.283Z,100352.81
2022-12-07T14:44:00.059Z,100360.81
2022-12-07T14:46:33.793Z,100356.28
2022-12-07T14:54:39.304Z,100366.34
2022-12-07T14:57:10.924Z,100361.00
2022-12-07T14:59:44.870Z,100363.63
2022-12-07T15:02:16.574Z,100364.63
2022-12-07T15:04:44.870Z,100369.53
2022-12-07T15:07:21.469Z,100369.19
2022-12-07T15:09:49.792Z,100366.88
2022-12-07T15:12:17.933Z,100365.63
2022-12-07T15:14:45.914Z,100365.16
2022-12-07T15:17:26.079Z,100374.25
2022-12-07T15:19:58.113Z,100381.91
2022-12-07T15:22:26.384Z,100382.72
2022-12-07T15:24:54.184Z,100387.56
2022-12-07T15:27:23.371Z,100381.19
2022-12-07T15:29:51.214Z,100387.72
2022-12-07T15:32:19.367Z,100391.00
2022-12-07T15:34:47.274Z,100391.50
2022-12-07T15:37:15.590Z,100388.09
2022-12-07T15:39:43.842Z,100393.47
2022-12-07T15:42:12.244Z,100386.25
2022-12-07T15:44:58.549Z,100404.03
2022-12-07T15:47:27.862Z,100399.81
2022-12-07T15:49:58.548Z,100396.88
2022-12-07T15:52:27.362Z,100397.78
2022-12-07T15:54:55.492Z,100398.09
2022-12-07T15:57:25.653Z,100389.41
2022-12-07T15:59:54.852Z,100388.66
2022-12-07T16:02:24.612Z,100398.81
2022-12-07T16:04:54.304Z,100401.38
2022-12-07T16:07:22.578Z,100398.59
2022-12-07T16:09:51.137Z,100396.81
2022-12-07T16:12:19.492Z,100395.38
2022-12-07T16:14:47.415Z,100392.91
2022-12-07T16:17:15.797Z,100406.41
2022-12-07T16:19:44.062Z,100394.91
2022-12-07T16:22:12.542Z,100398.97
2022-12-07T16:24:40.502Z,100395.16
2022-12-07T16:27:08.875Z,100390.84
2022-12-07T16:29:36.901Z,100391.66
2022-12-07T16:32:05.370Z,100391.44
2022-12-07T16:34:33.533Z,100391.63
2022-12-07T16:37:04.681Z,100396.22
2022-12-07T16:39:35.335Z,100398.25
2022-12-07T16:42:04.124Z,100395.88
2022-12-07T16:44:32.864Z,100404.75
2022-12-07T16:47:02.383Z,100396.97
2022-12-07T16:49:30.646Z,100395.47
2022-12-07T16:52:18.888Z,100402.97
2022-12-07T16:54:47.218Z,100401.09
2022-12-07T16:57:21.574Z,100407.06
2022-12-07T16:59:52.808Z,100399.31
2022-12-07T17:02:21.543Z,100407.38
2022-12-07T17:04:49.775Z,100404.03
2022-12-07T17:07:18.426Z,100403.06
2022-12-07T17:09:46.404Z,100399.41
2022-12-07T17:12:15.425Z,100404.88
2022-12-07T17:15:02.430Z,100401.44
2022-12-07T17:17:32.331Z,100396.28
2022-12-07T17:20:00.286Z,100397.34
2022-12-07T17:22:28.599Z,100392.34
2022-12-07T17:24:56.473Z,100394.69
2022-12-07T17:27:24.662Z,100384.66
2022-12-07T17:29:52.472Z,100392.72
2022-12-07T17:32:20.594Z,100393.63
2022-12-07T17:34:48.665Z,100395.28
2022-12-07T17:37:17.973Z,100395.88
2022-12-07T17:39:45.821Z,100390.44
2022-12-07T17:42:34.464Z,100389.91
2022-12-07T17:45:04.112Z,100391.16
2022-12-07T17:47:32.627Z,100390.06
2022-12-07T17:50:06.475Z,100389.78
2022-12-07T17:52:57.185Z,100399.53
2022-12-07T17:55:25.445Z,100392.56
2022-12-07T17:57:53.673Z,100395.50
2022-12-07T18:00:21.861Z,100394.06
2022-12-07T18:02:51.263Z,100394.53
2022-12-07T18:05:19.305Z,100393.72
2022-12-07T18:07:48.716Z,100390.28
2022-12-07T18:10:16.733Z,100390.41
2022-12-07T18:12:50.391Z,100381.63
2022-12-07T18:15:19.882Z,100389.69
2022-12-07T18:17:49.513Z,100386.38
2022-12-07T18:20:17.386Z,100393.72
2022-12-07T18:22:45.486Z,100392.75
2022-12-07T18:25:14.503Z,100398.22
2022-12-07T18:27:42.593Z,100396.81
2022-12-07T18:30:11.103Z,100405.47
2022-12-07T18:32:39.252Z,100407.97
2022-12-07T18:35:08.372Z,100406.31
2022-12-07T18:37:37.107Z,100404.94
2022-12-07T18:40:06.094Z,100409.59
2022-12-07T18:42:35.005Z,100416.22
2022-12-07T18:45:03.266Z,100416.47
2022-12-07T18:47:31.825Z,100419.28
2022-12-07T18:50:00.384Z,100419.56
2022-12-07T18:52:31.257Z,100415.81
2022-12-07T18:54:59.273Z,100418.88
2022-12-07T18:57:27.573Z,100419.78
2022-12-07T18:59:55.684Z,100423.00
2022-12-07T19:02:25.955Z,100422.75
2022-12-07T19:04:54.035Z,100426.59
2022-12-07T19:07:22.265Z,100423.09
2022-12-07T19:09:50.165Z,100431.19
2022-12-07T19:12:18.461Z,100427.88
2022-12-07T19:14:46.604Z,100419.47
2022-12-07T19:17:14.930Z,100426.03
2022-12-07T19:19:45.690Z,100432.16
2022-12-07T19:22:17.175Z,100437.97
2022-12-07T19:24:48.386Z,100444.34
2022-12-07T19:27:19.367Z,100446.47
2022-12-07T19:29:48.520Z,100445.16
2022-12-07T19:32:17.688Z,100451.19
2022-12-07T19:34:48.307Z,100447.25
2022-12-07T19:37:18.343Z,100452.00
2022-12-07T19:39:48.876Z,100452.78
2022-12-07T19:42:18.660Z,100459.91
2022-12-07T19:44:46.804Z,100457.53
2022-12-07T19:47:17.670Z,100455.41
2022-12-07T19:49:46.263Z,100447.00
2022-12-07T19:52:14.724Z,100445.91
2022-12-07T19:54:42.856Z,100446.69
2022-12-07T19:57:15.433Z,100444.75
2022-12-07T19:59:43.865Z,100449.09
2022-12-07T20:02:14.894Z,100443.81
2022-12-07T20:04:44.043Z,100453.31
2022-12-07T20:07:12.433Z,100450.06
2022-12-07T20:09:40.484Z,100452.94
2022-12-07T20:12:29.052Z,100453.50
2022-12-07T20:14:57.056Z,100444.63
2022-12-07T20:17:25.456Z,100446.72
2022-12-07T20:19:53.433Z,100448.31
2022-12-07T20:22:21.643Z,100438.78
2022-12-07T20:24:49.574Z,100440.84
2022-12-07T20:27:18.294Z,100452.13
2022-12-07T20:29:46.423Z,100454.03
2022-12-07T20:32:14.723Z,100451.19
2022-12-07T20:34:44.731Z,100454.91
2022-12-07T20:37:13.183Z,100445.41
2022-12-07T20:39:41.115Z,100451.47
2022-12-07T20:42:28.233Z,100455.44
2022-12-07T20:45:01.244Z,100451.47
2022-12-07T20:47:32.161Z,100440.13
2022-12-07T20:50:00.076Z,100439.56
2022-12-07T20:52:28.312Z,100449.84
2022-12-07T20:54:56.396Z,100458.16
2022-12-07T20:57:24.774Z,100456.06
2022-12-07T20:59:52.804Z,100448.84
2022-12-07T21:02:22.335Z,100452.09
2022-12-07T21:04:50.265Z,100451.28
2022-12-07T21:07:18.753Z,100446.75
2022-12-07T21:09:46.791Z,100445.72
2022-12-07T21:12:16.595Z,100447.66
2022-12-07T21:14:44.845Z,100448.94
2022-12-07T21:17:13.295Z,100446.38
2022-12-07T21:19:41.786Z,100443.41
2022-12-07T21:22:10.272Z,100446.50
2022-12-07T21:24:40.168Z,100453.91
2022-12-07T21:27:09.238Z,100451.00
2022-12-07T21:29:43.827Z,100448.97
2022-12-07T21:32:15.929Z,100449.75
2022-12-07T21:34:44.039Z,100448.16
2022-12-07T21:37:12.372Z,100445.81
2022-12-07T21:39:40.332Z,100445.28
2022-12-07T21:42:08.570Z,100451.53
2022-12-07T21:44:36.472Z,100449.59
2022-12-07T21:47:07.095Z,100442.19
2022-12-07T21:49:38.093Z,100444.50
2022-12-07T21:52:06.752Z,100448.25
2022-12-07T21:54:34.573Z,100449.22
2022-12-07T21:57:02.755Z,100453.50
2022-12-07T21:59:30.737Z,100448.84
2022-12-07T22:01:58.945Z,100455.41
2022-12-07T22:04:28.036Z,100461.22
2022-12-07T22:06:57.630Z,100449.09
2022-12-07T22:09:25.601Z,100457.00
2022-12-07T22:11:53.897Z,100453.31
2022-12-07T22:14:40.572Z,100454.63
2022-12-07T22:17:08.816Z,100461.97
2022-12-07T22:19:36.756Z,100454.81
2022-12-07T22:22:06.075Z,100457.81
2022-12-07T22:24:34.172Z,100452.63
2022-12-07T22:27:02.502Z,100455.81
2022-12-07T22:29:30.432Z,100459.19
2022-12-07T22:31:58.608Z,100450.69
2022-12-07T22:34:26.622Z,100451.03
2022-12-07T22:36:57.985Z,100447.50
2022-12-07T22:39:27.281Z,100450.38
2022-12-07T22:41:55.643Z,100444.81
2022-12-07T22:44:23.692Z,100447.31
2022-12-07T22:46:51.951Z,100445.53
2022-12-07T22:49:22.834Z,100450.50
2022-12-07T22:51:56.602Z,100444.03
2022-12-07T22:54:24.564Z,100450.41
2022-12-07T22:56:52.843Z,100450.16
2022-12-07T22:59:20.859Z,100448.31
2022-12-07T23:01:49.261Z,100446.47
2022-12-07T23:04:18.369Z,100445.94
2022-12-07T23:06:48.089Z,100453.56
2022-12-07T23:09:16.083Z,100437.25
2022-12-07T23:12:04.241Z,100433.03
2022-12-07T23:14:35.302Z,100437.25
2022-12-07T23:17:05.080Z,100430.88
2022-12-07T23:19:33.383Z,100434.06
2022-12-07T23:22:02.772Z,100439.03
2022-12-07T23:24:30.894Z,100434.59
2022-12-07T23:27:00.532Z,100441.97
2022-12-07T23:29:28.371Z,100439.09
2022-12-07T23:31:57.770Z,100431.66
2022-12-07T23:34:25.833Z,100431.66
2022-12-07T23:36:54.194Z,100419.75
2022-12-07T23:39:22.192Z,100417.34
2022-12-07T23:41:50.421Z,100425.25
2022-12-07T23:44:19.035Z,100426.31
2022-12-07T23:46:47.332Z,100418.13
2022-12-07T23:49:15.342Z,100426.28
2022-12-07T23:51:43.524Z,100424.53
2022-12-07T23:54:12.895Z,100426.81
2022-12-07T23:56:41.613Z,100415.84
2022-12-07T23:59:13.232Z,100418.47
